Terminal Aerodrome Forecast
Issued by NWS Albany, NY

Home | Current Version | Previous Version | Text Only | Print | Product List | Glossary On
Versions: 1 2 3 4 5 6 7 8 9 10 11 12 13
000
FTUS41 KALY 270500 RRA
TAFPOU
TAF
KPOU 270549Z 2706/2806 00000KT P6SM SCT250
     FM271500 23004KT P6SM SCT250
     FM272300 VRB03KT P6SM SCT050 BKN250
     FM280500 VRB03KT P6SM SCT050 BKN100=

USA.gov is the U.S. government's official web portal to all federal, state and local government web resources and services.